Terminal Aerodrome Forecast
Issued by NWS Lake Charles, LA

Home | Current Version | Previous Version | Text Only | Print | Product List | Glossary On
Versions: 1 2 3 4 5 6 7 8 9 10 11 12 13 14 15 16
000
FTUS44 KLCH 290520
TAFARA
TAF
KARA 290520Z 2906/3006 16005KT P6SM FEW040 SCT250
     FM291000 VRB03KT 4SM BR SCT025 SCT250
     FM291500 18006KT P6SM BKN035
     FM291800 19009KT P6SM VCTS BKN050CB
     FM300200 15004KT P6SM SCT040 BKN200=

USA.gov is the U.S. government's official web portal to all federal, state and local government web resources and services.